createdAt,value
2019-01-25T00:03:52.165Z,1.00
2019-01-25T00:08:55.630Z,1.00
2019-01-25T00:13:58.941Z,1.00
2019-01-25T00:19:08.298Z,1.00
2019-01-25T00:24:12.995Z,1.00
2019-01-25T00:29:16.446Z,1.00
2019-01-25T00:34:19.843Z,1.00
2019-01-25T00:39:23.374Z,1.00
2019-01-25T00:44:29.756Z,1.00
2019-01-25T00:49:33.139Z,1.00
2019-01-25T00:54:36.582Z,1.00
2019-01-25T00:59:39.995Z,1.00
2019-01-25T01:04:43.461Z,1.00
2019-01-25T01:09:46.946Z,1.00
2019-01-25T01:14:49.917Z,1.00
2019-01-25T01:19:54.725Z,1.00
2019-01-25T01:25:01.269Z,1.00
2019-01-25T01:30:06.045Z,1.00
2019-01-25T01:35:09.033Z,1.00
2019-01-25T01:40:21.511Z,1.00
2019-01-25T01:45:20.548Z,1.00
2019-01-25T01:50:24.143Z,1.00
2019-01-25T01:55:28.344Z,1.00
2019-01-25T02:00:32.955Z,1.00
2019-01-25T02:05:36.312Z,1.00
2019-01-25T02:10:39.650Z,1.00
2019-01-25T02:15:43.038Z,1.00
2019-01-25T02:20:46.455Z,1.00
2019-01-25T02:25:49.992Z,1.00
2019-01-25T02:30:53.454Z,1.00
2019-01-25T02:35:56.371Z,1.00
2019-01-25T02:40:59.929Z,1.00
2019-01-25T02:46:03.548Z,1.00
2019-01-25T02:51:07.061Z,1.00
2019-01-25T02:56:10.589Z,1.00
2019-01-25T03:01:13.970Z,1.00
2019-01-25T03:06:17.502Z,1.00
2019-01-25T03:11:21.115Z,1.00
2019-01-25T03:16:24.499Z,1.00
2019-01-25T03:21:27.910Z,1.00
2019-01-25T03:26:31.325Z,1.00
2019-01-25T03:31:34.745Z,1.00
2019-01-25T03:36:38.081Z,1.00
2019-01-25T03:41:41.463Z,1.00
2019-01-25T03:46:45.005Z,1.00
2019-01-25T03:51:54.462Z,1.00
2019-01-25T03:56:57.949Z,1.00
2019-01-25T04:02:04.227Z,1.00
2019-01-25T04:07:07.671Z,1.00
2019-01-25T04:12:11.123Z,1.00
2019-01-25T04:17:17.555Z,1.00
2019-01-25T04:22:20.869Z,1.00
2019-01-25T04:27:24.166Z,1.00
2019-01-25T04:32:27.552Z,1.00
2019-01-25T04:37:31.120Z,1.00
2019-01-25T04:42:34.417Z,1.00
2019-01-25T04:47:43.930Z,1.00
2019-01-25T04:52:47.498Z,1.00
2019-01-25T04:57:50.905Z,1.00
2019-01-25T05:02:58.363Z,1.00
2019-01-25T05:08:20.854Z,1.00
2019-01-25T05:13:25.520Z,1.00
2019-01-25T05:18:28.823Z,1.00
2019-01-25T05:23:35.103Z,1.00
2019-01-25T05:28:44.445Z,1.00
2019-01-25T05:33:59.167Z,1.00
2019-01-25T05:39:03.297Z,1.00
2019-01-25T05:44:06.536Z,1.00
2019-01-25T05:49:10.088Z,1.00
2019-01-25T05:54:19.474Z,1.00
2019-01-25T05:59:23.907Z,1.00
2019-01-25T06:04:34.657Z,1.00
2019-01-25T06:09:38.020Z,1.00
2019-01-25T06:14:41.340Z,1.00
2019-01-25T06:19:46.064Z,1.00
2019-01-25T06:24:52.613Z,1.00
2019-01-25T06:29:56.161Z,1.00
2019-01-25T06:34:59.635Z,1.00
2019-01-25T06:40:03.038Z,1.00
2019-01-25T06:45:06.440Z,1.00
2019-01-25T06:50:09.625Z,1.00
2019-01-25T06:55:13.094Z,1.00
2019-01-25T07:00:22.088Z,1.00
2019-01-25T07:05:28.179Z,1.00
2019-01-25T07:10:31.636Z,1.00
2019-01-25T07:15:34.953Z,1.00
2019-01-25T07:20:38.199Z,1.00
2019-01-25T07:25:44.867Z,1.00
2019-01-25T07:30:48.449Z,1.00
2019-01-25T07:36:07.271Z,1.00
2019-01-25T07:41:10.740Z,1.00
2019-01-25T07:46:20.297Z,1.00
2019-01-25T07:51:23.819Z,1.00
2019-01-25T07:56:27.240Z,1.00
2019-01-25T08:01:30.839Z,1.00
2019-01-25T08:06:40.461Z,1.00
2019-01-25T08:11:44.020Z,1.00
2019-01-25T08:16:53.306Z,1.00
2019-01-25T08:21:59.901Z,1.00
2019-01-25T08:27:06.307Z,1.00
2019-01-25T08:32:09.623Z,1.00
2019-01-25T08:37:13.006Z,1.00
2019-01-25T08:42:16.305Z,1.00
2019-01-25T08:47:22.804Z,1.00
2019-01-25T08:52:29.286Z,1.00
2019-01-25T08:57:32.706Z,1.00
2019-01-25T09:02:38.788Z,1.00
2019-01-25T09:07:42.273Z,1.00
2019-01-25T09:12:45.988Z,1.00
2019-01-25T09:17:52.144Z,1.00
2019-01-25T09:22:56.060Z,1.00
2019-01-25T09:27:59.577Z,1.00
2019-01-25T09:33:03.196Z,1.00
2019-01-25T09:38:06.813Z,1.00
2019-01-25T09:43:10.326Z,1.00
2019-01-25T09:48:25.926Z,1.00
2019-01-25T09:53:29.441Z,1.00
2019-01-25T09:58:33.264Z,1.00
2019-01-25T10:03:42.557Z,1.00
2019-01-25T10:08:50.129Z,1.00
2019-01-25T10:13:51.410Z,1.00
2019-01-25T10:19:12.823Z,1.00
2019-01-25T10:24:16.857Z,1.00
2019-01-25T10:29:20.399Z,1.00
2019-01-25T10:34:31.048Z,1.00
2019-01-25T10:39:34.307Z,1.00
2019-01-25T10:44:43.758Z,1.00
2019-01-25T10:50:01.052Z,1.00
2019-01-25T10:55:05.011Z,1.00
2019-01-25T11:00:10.822Z,1.00
2019-01-25T11:05:18.754Z,1.00
2019-01-25T11:10:26.331Z,1.00
2019-01-25T11:15:35.621Z,1.00
2019-01-25T11:20:39.136Z,1.00
2019-01-25T11:25:45.417Z,1.00
2019-01-25T11:30:48.933Z,1.00
2019-01-25T11:35:52.284Z,1.00
2019-01-25T11:40:55.686Z,1.00
2019-01-25T11:45:58.993Z,1.00
2019-01-25T11:51:02.297Z,1.00
2019-01-25T11:56:05.619Z,1.00
2019-01-25T12:01:11.183Z,1.00
2019-01-25T12:06:14.602Z,1.00
2019-01-25T12:11:17.907Z,1.00
2019-01-25T12:16:21.215Z,1.00
2019-01-25T12:21:24.437Z,1.00
2019-01-25T12:26:31.078Z,1.00
2019-01-25T12:31:37.563Z,1.00
2019-01-25T12:36:44.942Z,1.00
2019-01-25T12:41:48.485Z,1.00
2019-01-25T12:46:52.124Z,1.00
2019-01-25T12:52:08.295Z,1.00
2019-01-25T12:57:12.543Z,1.00
2019-01-25T13:02:16.677Z,1.00
2019-01-25T13:07:20.093Z,1.00
2019-01-25T13:12:26.605Z,1.00
2019-01-25T13:17:29.836Z,1.00
2019-01-25T13:22:33.254Z,1.00
2019-01-25T13:27:36.551Z,1.00
2019-01-25T13:32:41.305Z,1.00
2019-01-25T13:37:47.382Z,1.00
2019-01-25T13:42:50.801Z,1.00
2019-01-25T13:47:54.134Z,1.00
2019-01-25T13:52:57.562Z,1.00
2019-01-25T13:58:01.079Z,1.00
2019-01-25T14:03:07.870Z,1.00
2019-01-25T14:08:11.207Z,1.00
2019-01-25T14:13:14.618Z,1.00
2019-01-25T14:18:30.034Z,1.00
2019-01-25T14:23:36.498Z,1.00
2019-01-25T14:28:43.158Z,1.00
2019-01-25T14:33:55.643Z,1.00
2019-01-25T14:38:59.199Z,1.00
2019-01-25T14:44:02.543Z,1.00
2019-01-25T14:49:05.852Z,1.00
2019-01-25T14:54:10.984Z,1.00
2019-01-25T14:59:14.224Z,1.00
2019-01-25T15:04:17.516Z,1.00
2019-01-25T15:09:23.940Z,1.00
2019-01-25T15:14:27.459Z,1.00
2019-01-25T15:19:36.909Z,1.00
2019-01-25T15:24:40.208Z,1.00
2019-01-25T15:29:43.504Z,1.00
2019-01-25T15:34:55.933Z,1.00
2019-01-25T15:39:59.505Z,1.00
2019-01-25T15:45:03.767Z,1.00
2019-01-25T15:50:12.944Z,1.00
2019-01-25T15:55:17.070Z,1.00
2019-01-25T16:00:23.252Z,1.00
2019-01-25T16:05:26.885Z,1.00
2019-01-25T16:10:33.819Z,1.00
2019-01-25T16:15:40.423Z,1.00
2019-01-25T16:20:43.930Z,1.00
2019-01-25T16:25:50.218Z,1.00
2019-01-25T16:30:58.163Z,1.00
2019-01-25T16:36:01.357Z,1.00
2019-01-25T16:41:04.770Z,1.00
2019-01-25T16:46:11.147Z,1.00
2019-01-25T16:51:14.469Z,1.00
2019-01-25T16:56:17.864Z,1.00
2019-01-25T17:01:22.839Z,1.00
2019-01-25T17:06:26.143Z,1.00
2019-01-25T17:11:31.090Z,1.00
2019-01-25T17:16:34.484Z,1.00
2019-01-25T17:21:40.898Z,1.00
2019-01-25T17:26:44.303Z,1.00
2019-01-25T17:31:56.880Z,1.00
2019-01-25T17:37:00.291Z,1.00
2019-01-25T17:42:03.686Z,1.00
2019-01-25T17:47:09.202Z,1.00
2019-01-25T17:52:12.529Z,1.00
2019-01-25T17:57:15.342Z,1.00
2019-01-25T18:02:18.824Z,1.00
2019-01-25T18:07:24.485Z,1.00
2019-01-25T18:12:27.312Z,1.00
2019-01-25T18:17:30.607Z,1.00
2019-01-25T18:22:34.177Z,1.00
2019-01-25T18:27:40.006Z,1.00
2019-01-25T18:32:43.437Z,1.00
2019-01-25T18:37:49.891Z,1.00
2019-01-25T18:42:53.198Z,1.00
2019-01-25T18:47:59.802Z,1.00
2019-01-25T18:53:05.820Z,1.00
2019-01-25T18:58:09.457Z,1.00
2019-01-25T19:03:12.271Z,1.00
2019-01-25T19:08:15.479Z,1.00
2019-01-25T19:13:19.056Z,1.00
2019-01-25T19:18:22.316Z,1.00
2019-01-25T19:23:25.730Z,1.00
2019-01-25T19:28:29.044Z,1.00
2019-01-25T19:33:34.033Z,1.00
2019-01-25T19:38:36.861Z,1.00
2019-01-25T19:43:39.740Z,1.00
2019-01-25T19:48:45.201Z,1.00
2019-01-25T19:53:48.339Z,1.00
2019-01-25T19:58:52.026Z,1.00
2019-01-25T20:04:01.399Z,1.00
2019-01-25T20:09:09.645Z,1.00
2019-01-25T20:14:13.037Z,1.00
2019-01-25T20:19:33.937Z,1.00
2019-01-25T20:24:55.500Z,1.00
2019-01-25T20:29:58.989Z,1.00
2019-01-25T20:35:02.759Z,1.00
2019-01-25T20:40:08.852Z,1.00
2019-01-25T20:45:27.075Z,1.00
2019-01-25T20:50:27.198Z,1.00
2019-01-25T20:55:30.815Z,1.00
2019-01-25T21:00:36.141Z,1.00
2019-01-25T21:05:39.501Z,1.00
2019-01-25T21:10:51.762Z,1.00
2019-01-25T21:15:55.079Z,1.00
2019-01-25T21:20:58.619Z,3.00
2019-01-25T21:26:02.054Z,9.10
2019-01-25T21:31:05.373Z,7.00
2019-01-25T21:36:11.719Z,13.40
2019-01-25T21:41:15.076Z,15.10
2019-01-25T21:46:18.375Z,32.30
2019-01-25T21:51:24.763Z,30.60
2019-01-25T21:56:29.009Z,44.80
2019-01-25T22:01:32.303Z,53.20
2019-01-25T22:06:41.892Z,67.60
2019-01-25T22:11:48.162Z,75.60
2019-01-25T22:16:51.440Z,75.00
2019-01-25T22:21:57.213Z,83.60
2019-01-25T22:27:00.025Z,85.80
2019-01-25T22:32:06.469Z,93.50
2019-01-25T22:37:09.881Z,93.50
2019-01-25T22:42:15.892Z,94.40
2019-01-25T22:47:20.738Z,96.00
2019-01-25T22:52:24.314Z,96.00
2019-01-25T22:57:27.772Z,99.90
2019-01-25T23:02:32.984Z,99.90
2019-01-25T23:07:36.497Z,99.90
2019-01-25T23:12:39.937Z,99.90
2019-01-25T23:17:44.321Z,99.90
2019-01-25T23:22:47.862Z,99.90
2019-01-25T23:27:53.325Z,99.90
2019-01-25T23:32:59.645Z,99.90
2019-01-25T23:38:02.946Z,99.90
2019-01-25T23:43:09.294Z,99.90
2019-01-25T23:48:12.738Z,99.90
2019-01-25T23:53:16.220Z,99.90
2019-01-25T23:58:19.663Z,99.90
